DLH1CH EDDF-LSGG
Flight info
| Callsign | DLH1CH |
|---|---|
| Flight time | 0h 54m |
| Altitude | 31000 |
| Route | ANEKI2L/18 ANEKI Y163 HERBI Y164 MOPAN DCT LUTIX DCT BENOT BENOT1P |
| Aircraft | A321/M-SDE2E3FGIJ1LORWXYZ/HB1 |
Departure
| Time | 2026-05-01 14:35 |
|---|---|
| Airport | Frankfurt Main Airport (EDDF) |
Arrival
| Time | 2026-05-01 15:29 |
|---|---|
| Airport | Geneva International Airport (LSGG) |
| Time | Latitude | Longitude | Altitude | Speed | Heading |
|---|---|---|---|---|---|
| 2026-05-01 13:50 | 50.04687 | 8.56701 | 356 ft | 0 kts | 115° |
| 2026-05-01 14:21 | 50.04692 | 8.56683 | 362 ft | 3 kts | 115° |
| 2026-05-01 14:22 | 50.04710 | 8.56631 | 360 ft | 3 kts | 154° |
| 2026-05-01 14:22 | 50.04726 | 8.56630 | 362 ft | 3 kts | 207° |
| 2026-05-01 14:22 | 50.04744 | 8.56644 | 359 ft | 3 kts | 204° |
| 2026-05-01 14:22 | 50.04763 | 8.56659 | 362 ft | 3 kts | 208° |
| 2026-05-01 14:23 | 50.04782 | 8.56674 | 362 ft | 2 kts | 205° |
| 2026-05-01 14:23 | 50.04783 | 8.56675 | 362 ft | 0 kts | 205° |
| 2026-05-01 14:26 | 50.04741 | 8.56626 | 365 ft | 10 kts | 231° |
| 2026-05-01 14:26 | 50.04692 | 8.56527 | 359 ft | 12 kts | 236° |
| 2026-05-01 14:27 | 50.04657 | 8.56394 | 364 ft | 14 kts | 249° |
| 2026-05-01 14:27 | 50.04621 | 8.56242 | 360 ft | 16 kts | 249° |
| 2026-05-01 14:27 | 50.04582 | 8.56079 | 362 ft | 15 kts | 250° |
| 2026-05-01 14:28 | 50.04446 | 8.55918 | 360 ft | 14 kts | 197° |
| 2026-05-01 14:28 | 50.04345 | 8.55928 | 357 ft | 16 kts | 160° |
| 2026-05-01 14:28 | 50.04256 | 8.55956 | 357 ft | 13 kts | 201° |
| 2026-05-01 14:28 | 50.04211 | 8.55820 | 357 ft | 16 kts | 250° |
| 2026-05-01 14:29 | 50.04170 | 8.55649 | 356 ft | 18 kts | 249° |
| 2026-05-01 14:29 | 50.04124 | 8.55457 | 358 ft | 20 kts | 250° |
| 2026-05-01 14:30 | 50.03970 | 8.54813 | 356 ft | 24 kts | 249° |
| 2026-05-01 14:30 | 50.03921 | 8.54607 | 353 ft | 19 kts | 250° |
| 2026-05-01 14:30 | 50.03877 | 8.54426 | 354 ft | 15 kts | 249° |
| 2026-05-01 14:31 | 50.03772 | 8.54107 | 351 ft | 15 kts | 249° |
| 2026-05-01 14:31 | 50.03734 | 8.53948 | 351 ft | 15 kts | 249° |
| 2026-05-01 14:31 | 50.03694 | 8.53781 | 346 ft | 18 kts | 249° |
| 2026-05-01 14:31 | 50.03647 | 8.53592 | 346 ft | 20 kts | 247° |
| 2026-05-01 14:32 | 50.03595 | 8.53381 | 338 ft | 22 kts | 249° |
| 2026-05-01 14:32 | 50.03544 | 8.53167 | 335 ft | 19 kts | 250° |
| 2026-05-01 14:32 | 50.03499 | 8.52978 | 335 ft | 18 kts | 250° |
| 2026-05-01 14:32 | 50.03452 | 8.52803 | 335 ft | 15 kts | 247° |
| 2026-05-01 14:33 | 50.03420 | 8.52678 | 331 ft | 13 kts | 249° |
| 2026-05-01 14:33 | 50.03357 | 8.52594 | 336 ft | 13 kts | 179° |
| 2026-05-01 14:33 | 50.03338 | 8.52594 | 336 ft | 0 kts | 180° |
| 2026-05-01 14:34 | 50.03337 | 8.52594 | 336 ft | 0 kts | 180° |
| 2026-05-01 14:34 | 50.03336 | 8.52594 | 336 ft | 1 kts | 180° |
| 2026-05-01 14:34 | 50.03167 | 8.52596 | 336 ft | 62 kts | 179° |
| 2026-05-01 14:34 | 50.02475 | 8.52605 | 336 ft | 133 kts | 179° |
| 2026-05-01 14:35 | 50.01396 | 8.52601 | 630 ft | 163 kts | 175° |
| 2026-05-01 14:35 | 50.00253 | 8.52616 | 1410 ft | 165 kts | 173° |
| 2026-05-01 14:35 | 49.99091 | 8.52695 | 2087 ft | 174 kts | 172° |
| 2026-05-01 14:35 | 49.97810 | 8.52798 | 2434 ft | 195 kts | 174° |
| 2026-05-01 14:36 | 49.96372 | 8.52913 | 2686 ft | 218 kts | 175° |
| 2026-05-01 14:36 | 49.94819 | 8.53026 | 3244 ft | 226 kts | 174° |
| 2026-05-01 14:36 | 49.93247 | 8.53133 | 4111 ft | 226 kts | 175° |
| 2026-05-01 14:36 | 49.91683 | 8.53237 | 5061 ft | 224 kts | 176° |
| 2026-05-01 14:37 | 49.90120 | 8.53341 | 5911 ft | 226 kts | 176° |
| 2026-05-01 14:37 | 49.88536 | 8.53448 | 6735 ft | 229 kts | 176° |
| 2026-05-01 14:37 | 49.86934 | 8.53554 | 7474 ft | 232 kts | 176° |
| 2026-05-01 14:37 | 49.85305 | 8.53660 | 8226 ft | 236 kts | 176° |
| 2026-05-01 14:38 | 49.83652 | 8.53768 | 8980 ft | 239 kts | 176° |
| 2026-05-01 14:38 | 49.81983 | 8.53880 | 9775 ft | 241 kts | 176° |
| 2026-05-01 14:38 | 49.80292 | 8.53994 | 10515 ft | 244 kts | 176° |
| 2026-05-01 14:38 | 49.78586 | 8.54113 | 11219 ft | 247 kts | 176° |
| 2026-05-01 14:39 | 49.76882 | 8.53994 | 11676 ft | 263 kts | 182° |
| 2026-05-01 14:39 | 49.74922 | 8.53739 | 11896 ft | 287 kts | 183° |
| 2026-05-01 14:39 | 49.72855 | 8.53462 | 12057 ft | 310 kts | 183° |
| 2026-05-01 14:39 | 49.70634 | 8.53166 | 12297 ft | 328 kts | 183° |
| 2026-05-01 14:40 | 49.68333 | 8.52859 | 12851 ft | 335 kts | 183° |
| 2026-05-01 14:40 | 49.65998 | 8.52545 | 13520 ft | 339 kts | 183° |
| 2026-05-01 14:40 | 49.63692 | 8.52237 | 14141 ft | 343 kts | 182° |
| 2026-05-01 14:40 | 49.61302 | 8.51923 | 14722 ft | 347 kts | 183° |
| 2026-05-01 14:41 | 49.58892 | 8.51605 | 15316 ft | 350 kts | 183° |
| 2026-05-01 14:41 | 49.56452 | 8.51281 | 15918 ft | 353 kts | 183° |
| 2026-05-01 14:41 | 49.54005 | 8.50955 | 16508 ft | 356 kts | 183° |
| 2026-05-01 14:41 | 49.51523 | 8.50626 | 17101 ft | 360 kts | 183° |
| 2026-05-01 14:42 | 49.49022 | 8.50297 | 17699 ft | 363 kts | 183° |
| 2026-05-01 14:42 | 49.46532 | 8.49969 | 18287 ft | 365 kts | 183° |
| 2026-05-01 14:42 | 49.43990 | 8.49637 | 18827 ft | 368 kts | 183° |
| 2026-05-01 14:42 | 49.41428 | 8.49304 | 19324 ft | 371 kts | 183° |
| 2026-05-01 14:43 | 49.38840 | 8.48969 | 19808 ft | 375 kts | 183° |
| 2026-05-01 14:43 | 49.36229 | 8.48632 | 20295 ft | 378 kts | 183° |
| 2026-05-01 14:43 | 49.33598 | 8.48292 | 20782 ft | 381 kts | 183° |
| 2026-05-01 14:43 | 49.30949 | 8.47949 | 21268 ft | 384 kts | 182° |
| 2026-05-01 14:44 | 49.29180 | 8.47719 | 21584 ft | 386 kts | 183° |
| 2026-05-01 14:44 | 49.23882 | 8.47039 | 22432 ft | 393 kts | 184° |
| 2026-05-01 14:44 | 49.21140 | 8.46676 | 22875 ft | 397 kts | 183° |
| 2026-05-01 14:45 | 49.18378 | 8.46309 | 23293 ft | 401 kts | 183° |
| 2026-05-01 14:45 | 49.12774 | 8.45575 | 24088 ft | 407 kts | 184° |
| 2026-05-01 14:45 | 49.09966 | 8.45217 | 24433 ft | 410 kts | 184° |
| 2026-05-01 14:46 | 49.07118 | 8.44844 | 24816 ft | 413 kts | 185° |
| 2026-05-01 14:46 | 49.01440 | 8.43039 | 25495 ft | 420 kts | 192° |
| 2026-05-01 14:46 | 48.98586 | 8.42034 | 25868 ft | 422 kts | 192° |
| 2026-05-01 14:47 | 48.95707 | 8.41028 | 26258 ft | 424 kts | 192° |
| 2026-05-01 14:47 | 48.92831 | 8.40028 | 26628 ft | 426 kts | 192° |
| 2026-05-01 14:47 | 48.89929 | 8.39025 | 26970 ft | 430 kts | 192° |
| 2026-05-01 14:48 | 48.84098 | 8.37022 | 27704 ft | 434 kts | 192° |
| 2026-05-01 14:48 | 48.81149 | 8.36005 | 28039 ft | 436 kts | 192° |
| 2026-05-01 14:48 | 48.75196 | 8.33909 | 28722 ft | 442 kts | 193° |
| 2026-05-01 14:49 | 48.69194 | 8.31695 | 29428 ft | 446 kts | 193° |
| 2026-05-01 14:49 | 48.63120 | 8.29440 | 30077 ft | 452 kts | 193° |
| 2026-05-01 14:50 | 48.57985 | 8.27567 | 30600 ft | 455 kts | 193° |
| 2026-05-01 14:50 | 48.50788 | 8.24974 | 31193 ft | 459 kts | 193° |
| 2026-05-01 14:51 | 48.41795 | 8.21713 | 31267 ft | 428 kts | 193° |
| 2026-05-01 14:52 | 48.33154 | 8.18556 | 31256 ft | 426 kts | 193° |
| 2026-05-01 14:53 | 48.24564 | 8.15248 | 31262 ft | 425 kts | 201° |
| 2026-05-01 14:53 | 48.19219 | 8.11447 | 31273 ft | 426 kts | 206° |
| 2026-05-01 14:54 | 48.13906 | 8.07509 | 31272 ft | 426 kts | 206° |
| 2026-05-01 14:54 | 48.08599 | 8.03598 | 31284 ft | 425 kts | 206° |
| 2026-05-01 14:55 | 48.03292 | 7.99700 | 31285 ft | 424 kts | 206° |
| 2026-05-01 14:55 | 47.98001 | 7.95808 | 31288 ft | 424 kts | 206° |
| 2026-05-01 14:56 | 47.92708 | 7.91929 | 31289 ft | 423 kts | 206° |
| 2026-05-01 14:56 | 47.87423 | 7.88068 | 31296 ft | 422 kts | 206° |
| 2026-05-01 14:57 | 47.82150 | 7.84224 | 31295 ft | 422 kts | 206° |
| 2026-05-01 14:57 | 47.74250 | 7.78477 | 31280 ft | 421 kts | 206° |
| 2026-05-01 14:58 | 47.68986 | 7.74653 | 31267 ft | 421 kts | 206° |
| 2026-05-01 14:58 | 47.63714 | 7.70846 | 31259 ft | 421 kts | 206° |
| 2026-05-01 14:59 | 47.61087 | 7.68951 | 31137 ft | 418 kts | 206° |
| 2026-05-01 14:59 | 47.58486 | 7.67075 | 30888 ft | 413 kts | 206° |
| 2026-05-01 14:59 | 47.55910 | 7.65217 | 30644 ft | 411 kts | 206° |
| 2026-05-01 14:59 | 47.53409 | 7.63416 | 30406 ft | 409 kts | 206° |
| 2026-05-01 15:00 | 47.48365 | 7.59790 | 29614 ft | 397 kts | 206° |
| 2026-05-01 15:00 | 47.45899 | 7.58016 | 29193 ft | 392 kts | 206° |
| 2026-05-01 15:00 | 47.43463 | 7.56270 | 28968 ft | 385 kts | 206° |
| 2026-05-01 15:01 | 47.41010 | 7.54514 | 28880 ft | 398 kts | 206° |
| 2026-05-01 15:01 | 47.38527 | 7.52738 | 28506 ft | 404 kts | 206° |
| 2026-05-01 15:01 | 47.35971 | 7.50910 | 28004 ft | 402 kts | 206° |
| 2026-05-01 15:01 | 47.33463 | 7.49120 | 27500 ft | 398 kts | 206° |
| 2026-05-01 15:02 | 47.30977 | 7.47347 | 27004 ft | 396 kts | 205° |
| 2026-05-01 15:02 | 47.29339 | 7.46180 | 26684 ft | 394 kts | 205° |
| 2026-05-01 15:02 | 47.26055 | 7.43840 | 26040 ft | 390 kts | 205° |
| 2026-05-01 15:02 | 47.23622 | 7.42110 | 25567 ft | 386 kts | 205° |
| 2026-05-01 15:03 | 47.21210 | 7.40399 | 25114 ft | 384 kts | 205° |
| 2026-05-01 15:03 | 47.18864 | 7.38682 | 24680 ft | 381 kts | 210° |
| 2026-05-01 15:03 | 47.16688 | 7.36502 | 24237 ft | 378 kts | 219° |
| 2026-05-01 15:03 | 47.14783 | 7.33812 | 23933 ft | 387 kts | 229° |
| 2026-05-01 15:04 | 47.13059 | 7.30687 | 23584 ft | 399 kts | 231° |
| 2026-05-01 15:04 | 47.11328 | 7.27496 | 23248 ft | 400 kts | 231° |
| 2026-05-01 15:04 | 47.09597 | 7.24313 | 22939 ft | 398 kts | 231° |
| 2026-05-01 15:04 | 47.07875 | 7.21156 | 22619 ft | 396 kts | 231° |
| 2026-05-01 15:05 | 47.06155 | 7.18007 | 22299 ft | 394 kts | 231° |
| 2026-05-01 15:05 | 47.04452 | 7.14883 | 22000 ft | 391 kts | 231° |
| 2026-05-01 15:05 | 47.02760 | 7.11778 | 21684 ft | 389 kts | 231° |
| 2026-05-01 15:05 | 47.01079 | 7.08695 | 21350 ft | 387 kts | 231° |
| 2026-05-01 15:06 | 46.99405 | 7.05625 | 21046 ft | 384 kts | 231° |
| 2026-05-01 15:06 | 46.97741 | 7.02581 | 20733 ft | 382 kts | 230° |
| 2026-05-01 15:06 | 46.96085 | 6.99563 | 20428 ft | 379 kts | 230° |
| 2026-05-01 15:06 | 46.94436 | 6.96564 | 20128 ft | 377 kts | 231° |
| 2026-05-01 15:07 | 46.92785 | 6.93622 | 19819 ft | 372 kts | 226° |
| 2026-05-01 15:07 | 46.90880 | 6.91107 | 19520 ft | 368 kts | 215° |
| 2026-05-01 15:07 | 46.88696 | 6.89187 | 19231 ft | 365 kts | 205° |
| 2026-05-01 15:07 | 46.86361 | 6.87750 | 18927 ft | 363 kts | 202° |
| 2026-05-01 15:08 | 46.84027 | 6.86350 | 18630 ft | 362 kts | 202° |
| 2026-05-01 15:08 | 46.81705 | 6.84953 | 18310 ft | 360 kts | 202° |
| 2026-05-01 15:08 | 46.79396 | 6.83564 | 18012 ft | 358 kts | 202° |
| 2026-05-01 15:08 | 46.77096 | 6.82181 | 17730 ft | 357 kts | 202° |
| 2026-05-01 15:09 | 46.74806 | 6.80806 | 17436 ft | 356 kts | 202° |
| 2026-05-01 15:09 | 46.72521 | 6.79436 | 17148 ft | 354 kts | 202° |
| 2026-05-01 15:09 | 46.70246 | 6.78075 | 16857 ft | 353 kts | 202° |
| 2026-05-01 15:09 | 46.67979 | 6.76719 | 16571 ft | 351 kts | 202° |
| 2026-05-01 15:10 | 46.65746 | 6.75355 | 16285 ft | 350 kts | 205° |
| 2026-05-01 15:10 | 46.61468 | 6.71988 | 15719 ft | 347 kts | 208° |
| 2026-05-01 15:10 | 46.59351 | 6.70314 | 15436 ft | 345 kts | 208° |
| 2026-05-01 15:11 | 46.57243 | 6.68654 | 15155 ft | 344 kts | 208° |
| 2026-05-01 15:11 | 46.53047 | 6.65363 | 14604 ft | 341 kts | 208° |
| 2026-05-01 15:11 | 46.50959 | 6.63724 | 14323 ft | 340 kts | 208° |
| 2026-05-01 15:12 | 46.48885 | 6.62094 | 14047 ft | 338 kts | 208° |
| 2026-05-01 15:12 | 46.44794 | 6.58880 | 13540 ft | 324 kts | 208° |
| 2026-05-01 15:12 | 46.42857 | 6.57362 | 13405 ft | 309 kts | 208° |
| 2026-05-01 15:13 | 46.37832 | 6.52099 | 12674 ft | 296 kts | 225° |
| 2026-05-01 15:14 | 46.34962 | 6.47844 | 12368 ft | 295 kts | 224° |
| 2026-05-01 15:14 | 46.33530 | 6.45726 | 12217 ft | 294 kts | 224° |
| 2026-05-01 15:14 | 46.30677 | 6.41515 | 11905 ft | 293 kts | 224° |
| 2026-05-01 15:15 | 46.27837 | 6.37335 | 11610 ft | 290 kts | 224° |
| 2026-05-01 15:15 | 46.25014 | 6.33178 | 11318 ft | 289 kts | 224° |
| 2026-05-01 15:16 | 46.22212 | 6.29059 | 11028 ft | 288 kts | 224° |
| 2026-05-01 15:16 | 46.19419 | 6.24950 | 10732 ft | 286 kts | 224° |
| 2026-05-01 15:17 | 46.16639 | 6.20825 | 10436 ft | 286 kts | 224° |
| 2026-05-01 15:18 | 46.12522 | 6.14725 | 10003 ft | 271 kts | 224° |
| 2026-05-01 15:18 | 46.11233 | 6.12810 | 9834 ft | 262 kts | 224° |
| 2026-05-01 15:19 | 46.07589 | 6.07454 | 9362 ft | 239 kts | 224° |
| 2026-05-01 15:19 | 46.05243 | 6.04080 | 9051 ft | 241 kts | 224° |
| 2026-05-01 15:19 | 46.04037 | 6.02348 | 8903 ft | 247 kts | 224° |
| 2026-05-01 15:20 | 46.01607 | 5.98856 | 8593 ft | 247 kts | 224° |
| 2026-05-01 15:20 | 46.00389 | 5.97105 | 8439 ft | 248 kts | 224° |
| 2026-05-01 15:20 | 45.99169 | 5.95351 | 8288 ft | 248 kts | 224° |
| 2026-05-01 15:21 | 45.97950 | 5.93596 | 8140 ft | 248 kts | 224° |
| 2026-05-01 15:21 | 45.96743 | 5.91851 | 8033 ft | 245 kts | 226° |
| 2026-05-01 15:21 | 45.95897 | 5.89758 | 8011 ft | 246 kts | 256° |
| 2026-05-01 15:21 | 45.95912 | 5.87315 | 8008 ft | 249 kts | 286° |
| 2026-05-01 15:22 | 45.97939 | 5.83287 | 7515 ft | 249 kts | 313° |
| 2026-05-01 15:22 | 45.99165 | 5.81542 | 7114 ft | 247 kts | 323° |
| 2026-05-01 15:22 | 46.00727 | 5.80658 | 6755 ft | 243 kts | 355° |
| 2026-05-01 15:23 | 46.02396 | 5.80946 | 6463 ft | 243 kts | 18° |
| 2026-05-01 15:23 | 46.03894 | 5.82036 | 6161 ft | 237 kts | 38° |
| 2026-05-01 15:23 | 46.05077 | 5.83550 | 6007 ft | 221 kts | 45° |
| 2026-05-01 15:23 | 46.06146 | 5.85113 | 5929 ft | 221 kts | 46° |
| 2026-05-01 15:24 | 46.07225 | 5.86692 | 5659 ft | 221 kts | 46° |
| 2026-05-01 15:24 | 46.08309 | 5.88268 | 5377 ft | 221 kts | 46° |
| 2026-05-01 15:24 | 46.09367 | 5.89807 | 5105 ft | 211 kts | 46° |
| 2026-05-01 15:24 | 46.10379 | 5.91279 | 4829 ft | 202 kts | 46° |
| 2026-05-01 15:25 | 46.11349 | 5.92691 | 4568 ft | 195 kts | 46° |
| 2026-05-01 15:25 | 46.12289 | 5.94060 | 4309 ft | 190 kts | 46° |
| 2026-05-01 15:25 | 46.13211 | 5.95404 | 4072 ft | 187 kts | 46° |
| 2026-05-01 15:25 | 46.14120 | 5.96730 | 3825 ft | 186 kts | 46° |
| 2026-05-01 15:26 | 46.14720 | 5.97605 | 3668 ft | 184 kts | 45° |
| 2026-05-01 15:26 | 46.15606 | 5.98897 | 3429 ft | 180 kts | 45° |
| 2026-05-01 15:26 | 46.16484 | 6.00179 | 3191 ft | 179 kts | 45° |
| 2026-05-01 15:26 | 46.17349 | 6.01443 | 2968 ft | 170 kts | 45° |
| 2026-05-01 15:27 | 46.18138 | 6.02595 | 2747 ft | 154 kts | 45° |
| 2026-05-01 15:27 | 46.18866 | 6.03660 | 2540 ft | 146 kts | 45° |
| 2026-05-01 15:27 | 46.19572 | 6.04693 | 2350 ft | 143 kts | 45° |
| 2026-05-01 15:28 | 46.20960 | 6.06725 | 1958 ft | 141 kts | 45° |
| 2026-05-01 15:28 | 46.21646 | 6.07737 | 1771 ft | 140 kts | 46° |
| 2026-05-01 15:28 | 46.22331 | 6.08729 | 1582 ft | 140 kts | 45° |
| 2026-05-01 15:29 | 46.23554 | 6.10526 | 1384 ft | 72 kts | 46° |
| 2026-05-01 15:29 | 46.23799 | 6.10887 | 1381 ft | 36 kts | 45° |
| 2026-05-01 15:29 | 46.23767 | 6.11085 | 1381 ft | 13 kts | 171° |
| 2026-05-01 15:30 | 46.23647 | 6.10994 | 1387 ft | 12 kts | 225° |
| 2026-05-01 15:31 | 46.23326 | 6.10535 | 1401 ft | 17 kts | 225° |
| 2026-05-01 15:31 | 46.23186 | 6.10340 | 1400 ft | 10 kts | 197° |
| 2026-05-01 15:32 | 46.23063 | 6.10486 | 1403 ft | 10 kts | 160° |
| 2026-05-01 15:32 | 46.22976 | 6.10413 | 1395 ft | 5 kts | 154° |
| 2026-05-01 15:33 | 46.22946 | 6.10453 | 1398 ft | 0 kts | 136° |